K-storm — V2DV8 — position and weather

sailwx.info

Track history (hours):
 
Tides and Currents Weather Stations Pressure Air Temp Water Temp Dewpoint Dewpoint Depression Visibility Wind Speed Wind Dir Waves Ship Positions

K-storm

Last reported at 2014-Sep-19 14:33 UTC. Time now 2014-Sep-20 11:58 UTC.
Position N 25°28' W 080°01'.

Length 139 m; draft 6.9 m.

Type: Cargo ship. MMSI: 305350000.

Date/timePositionNaut miles runAvg speedWind from/ knotsBaromVisibWave heightAir tempDewpointWater temp
2014-Sep-19 14:33N 25°28' W 080°01'1615.9
2014-Sep-19 13:33N 25°44' W 080°02'1717.3
2014-Sep-19 12:33N 26°01' W 080°03'4 4.1
2014-Sep-19 11:31N 26°04' W 080°07'0 0.0
2014-Sep-19 10:22N 26°04' W 080°07'0 0.0
2014-Sep-19 09:33N 26°04' W 080°07'0 0.0
2014-Sep-19 08:24N 26°04' W 080°07'0 0.0
2014-Sep-19 07:32N 26°04' W 080°07'0 0.0
2014-Sep-19 06:26N 26°04' W 080°07'0 0.0
2014-Sep-19 05:19N 26°04' W 080°07'0 0.0
2014-Sep-19 04:28N 26°04' W 080°07'0 0.0
2014-Sep-19 03:21N 26°04' W 080°07'0 0.0
2014-Sep-19 02:33N 26°04' W 080°07'0 0.0
2014-Sep-19 01:24N 26°04' W 080°07'0 0.0
2014-Sep-19 00:32N 26°04' W 080°07'0 0.0
2014-Sep-18 23:26N 26°04' W 080°07'0 0.0
2014-Sep-18 22:31N 26°04' W 080°07'0 0.0
2014-Sep-18 21:28N 26°04' W 080°07'0 0.0
2014-Sep-18 20:21N 26°04' W 080°07'0 0.0
2014-Sep-18 19:30N 26°04' W 080°07'0 0.0
2014-Sep-18 18:33N 26°04' W 080°07'0 0.0
2014-Sep-18 17:32N 26°04' W 080°07'0 0.0
2014-Sep-18 16:26N 26°04' W 080°07'0 0.0
2014-Sep-18 15:31N 26°04' W 080°07'0 0.0
2014-Sep-18 14:28N 26°04' W 080°07'0 0.0
2014-Sep-18 13:30N 26°04' W 080°07'0 0.0
2014-Sep-18 12:30N 26°04' W 080°07'0 0.0
2014-Sep-18 11:33N 26°04' W 080°07'0 0.0
2014-Sep-18 10:29N 26°04' W 080°07'0 0.0
2014-Sep-18 09:26N 26°04' W 080°07'0 0.0
2014-Sep-18 08:31N 26°04' W 080°07'0 0.0
2014-Sep-18 07:28N 26°04' W 080°07'0 0.0
2014-Sep-18 06:33N 26°04' W 080°07'0 0.0
2014-Sep-18 05:29N 26°04' W 080°07'0 0.0
2014-Sep-18 04:33N 26°04' W 080°07'1 0.7
2014-Sep-18 03:33N 26°05' W 080°07'5 5.1
2014-Sep-18 02:33N 26°02' W 080°02'1616.5
2014-Sep-18 01:33N 25°46' W 079°58'  
2014-Sep-12 16:21N 25°28' W 080°01'1113.8
2014-Sep-12 15:33N 25°39' W 080°01'1313.2
2014-Sep-12 14:34N 25°52' W 080°02'1312.9
2014-Sep-12 13:33N 26°05' W 080°02'4 3.9
2014-Sep-12 12:30N 26°04' W 080°07'0 0.0
2014-Sep-12 11:23N 26°04' W 080°07'0 0.0
2014-Sep-12 10:32N 26°04' W 080°07'0 0.0
2014-Sep-12 09:26N 26°04' W 080°07'0 0.0
2014-Sep-12 08:31N 26°04' W 080°07'0 0.0
2014-Sep-12 07:28N 26°04' W 080°07'0 0.0
2014-Sep-12 06:33N 26°04' W 080°07'0 0.0
2014-Sep-12 05:27N 26°04' W 080°07'0 0.0
2014-Sep-12 04:23N 26°04' W 080°07'0 0.0
2014-Sep-12 03:29N 26°04' W 080°07'0 0.0
2014-Sep-12 02:26N 26°04' W 080°07'0 0.0
2014-Sep-12 01:16N 26°04' W 080°07'0 0.0
2014-Sep-12 00:28N 26°04' W 080°07'0 0.0
2014-Sep-11 23:33N 26°04' W 080°07'0 0.0
2014-Sep-11 22:30N 26°04' W 080°07'0 0.0
2014-Sep-11 21:23N 26°04' W 080°07'0 0.0
2014-Sep-11 20:32N 26°04' W 080°07'2 1.7
2014-Sep-11 19:29N 26°06' W 080°07'0 0.0
2014-Sep-11 18:22N 26°06' W 080°07'0 0.0
2014-Sep-11 17:31N 26°06' W 080°07'0 0.0
2014-Sep-11 16:24N 26°06' W 080°07'0 0.0
2014-Sep-11 15:30N 26°06' W 080°07'0 0.0
2014-Sep-11 14:27N 26°06' W 080°07'0 0.0
2014-Sep-11 13:32N 26°06' W 080°07'0 0.0
2014-Sep-11 12:29N 26°06' W 080°07'0 0.0
2014-Sep-11 11:31N 26°06' W 080°07'0 0.0
2014-Sep-11 10:31N 26°06' W 080°07'0 0.0
2014-Sep-11 09:33N 26°06' W 080°07'0 0.0
2014-Sep-11 08:33N 26°06' W 080°07'0 0.0
2014-Sep-11 07:27N 26°06' W 080°07'0 0.0
2014-Sep-11 06:32N 26°06' W 080°07'0 0.0
2014-Sep-11 05:29N 26°06' W 080°07'0 0.0
2014-Sep-11 04:31N 26°06' W 080°07'0 0.0
2014-Sep-11 03:31N 26°06' W 080°07'0 0.0
2014-Sep-11 02:33N 26°06' W 080°07'0 0.0
2014-Sep-11 01:33N 26°06' W 080°07'0 0.0
2014-Sep-11 00:23N 26°06' W 080°07'0 0.0
2014-Sep-10 23:32N 26°06' W 080°07'0 0.0
2014-Sep-10 22:26N 26°06' W 080°07'0 0.0
2014-Sep-10 21:31N 26°06' W 080°07'0 0.0
2014-Sep-10 20:28N 26°06' W 080°07'0 0.0
2014-Sep-10 19:33N 26°06' W 080°07'0 0.0
2014-Sep-10 18:30N 26°06' W 080°07'0 0.0
2014-Sep-10 17:23N 26°06' W 080°07'0 0.0
2014-Sep-10 16:32N 26°06' W 080°07'0 0.0
2014-Sep-10 15:29N 26°06' W 080°07'0 0.0
2014-Sep-10 14:22N 26°06' W 080°07'0 0.0
2014-Sep-10 13:16N 26°06' W 080°07'0 0.0
2014-Sep-10 12:24N 26°06' W 080°07'0 0.0
2014-Sep-10 11:30N 26°06' W 080°07'0 0.0
2014-Sep-10 10:26N 26°06' W 080°07'0 0.0
2014-Sep-10 09:32N 26°06' W 080°07'0 0.0
2014-Sep-10 08:29N 26°06' W 080°07'0 0.0
2014-Sep-10 07:22N 26°06' W 080°07'0 0.0
2014-Sep-10 06:31N 26°06' W 080°07'0 0.0
2014-Sep-10 05:24N 26°06' W 080°07'0 0.0
2014-Sep-10 04:33N 26°06' W 080°07'0 0.0
2014-Sep-10 03:26N 26°06' W 080°07'0 0.0
2014-Sep-10 02:32N 26°06' W 080°07'0 0.0
2014-Sep-10 01:29N 26°06' W 080°07'0 0.0
2014-Sep-10 00:31N 26°06' W 080°07'0 0.0
2014-Sep-09 23:31N 26°06' W 080°07'0 0.0
2014-Sep-09 22:24N 26°06' W 080°07'0 0.0
2014-Sep-09 21:33N 26°06' W 080°07'0 0.0
2014-Sep-09 20:26N 26°06' W 080°07'0 0.0
2014-Sep-09 19:32N 26°06' W 080°07'0 0.0
2014-Sep-09 18:28N 26°06' W 080°07'0 0.0
2014-Sep-09 17:31N 26°06' W 080°07'0 0.0
2014-Sep-09 16:31N 26°06' W 080°07'0 0.0
2014-Sep-09 15:33N 26°06' W 080°07'  
Track history (hours):
 
Tides and Currents Weather Stations Pressure Air Temp Water Temp Dewpoint Dewpoint Depression Visibility Wind Speed Wind Dir Waves Ship Positions

K-storm

Last reported at 2014-Sep-19 14:33 UTC. Time now 2014-Sep-20 11:58 UTC.
Position N 25°28' W 080°01'.

Length 139 m; draft 6.9 m.

Type: Cargo ship. MMSI: 305350000.

Date/timePositionNaut miles runAvg speedWind from/ knotsBaromVisibWave heightAir tempDewpointWater temp
2014-Sep-19 14:33N 25°28' W 080°01'1615.9
2014-Sep-19 13:33N 25°44' W 080°02'1717.3
2014-Sep-19 12:33N 26°01' W 080°03'4 4.1
2014-Sep-19 11:31N 26°04' W 080°07'0 0.0
2014-Sep-19 10:22N 26°04' W 080°07'0 0.0
2014-Sep-19 09:33N 26°04' W 080°07'0 0.0
2014-Sep-19 08:24N 26°04' W 080°07'0 0.0
2014-Sep-19 07:32N 26°04' W 080°07'0 0.0
2014-Sep-19 06:26N 26°04' W 080°07'0 0.0
2014-Sep-19 05:19N 26°04' W 080°07'0 0.0
2014-Sep-19 04:28N 26°04' W 080°07'0 0.0
2014-Sep-19 03:21N 26°04' W 080°07'0 0.0
2014-Sep-19 02:33N 26°04' W 080°07'0 0.0
2014-Sep-19 01:24N 26°04' W 080°07'0 0.0
2014-Sep-19 00:32N 26°04' W 080°07'0 0.0
2014-Sep-18 23:26N 26°04' W 080°07'0 0.0
2014-Sep-18 22:31N 26°04' W 080°07'0 0.0
2014-Sep-18 21:28N 26°04' W 080°07'0 0.0
2014-Sep-18 20:21N 26°04' W 080°07'0 0.0
2014-Sep-18 19:30N 26°04' W 080°07'0 0.0
2014-Sep-18 18:33N 26°04' W 080°07'0 0.0
2014-Sep-18 17:32N 26°04' W 080°07'0 0.0
2014-Sep-18 16:26N 26°04' W 080°07'0 0.0
2014-Sep-18 15:31N 26°04' W 080°07'0 0.0
2014-Sep-18 14:28N 26°04' W 080°07'0 0.0
2014-Sep-18 13:30N 26°04' W 080°07'0 0.0
2014-Sep-18 12:30N 26°04' W 080°07'0 0.0
2014-Sep-18 11:33N 26°04' W 080°07'0 0.0
2014-Sep-18 10:29N 26°04' W 080°07'0 0.0
2014-Sep-18 09:26N 26°04' W 080°07'0 0.0
2014-Sep-18 08:31N 26°04' W 080°07'0 0.0
2014-Sep-18 07:28N 26°04' W 080°07'0 0.0
2014-Sep-18 06:33N 26°04' W 080°07'0 0.0
2014-Sep-18 05:29N 26°04' W 080°07'0 0.0
2014-Sep-18 04:33N 26°04' W 080°07'1 0.7
2014-Sep-18 03:33N 26°05' W 080°07'5 5.1
2014-Sep-18 02:33N 26°02' W 080°02'1616.5
2014-Sep-18 01:33N 25°46' W 079°58'  
2014-Sep-12 16:21N 25°28' W 080°01'1113.8
2014-Sep-12 15:33N 25°39' W 080°01'1313.2
2014-Sep-12 14:34N 25°52' W 080°02'1312.9
2014-Sep-12 13:33N 26°05' W 080°02'4 3.9
2014-Sep-12 12:30N 26°04' W 080°07'0 0.0
2014-Sep-12 11:23N 26°04' W 080°07'0 0.0
2014-Sep-12 10:32N 26°04' W 080°07'0 0.0
2014-Sep-12 09:26N 26°04' W 080°07'0 0.0
2014-Sep-12 08:31N 26°04' W 080°07'0 0.0
2014-Sep-12 07:28N 26°04' W 080°07'0 0.0
2014-Sep-12 06:33N 26°04' W 080°07'0 0.0
2014-Sep-12 05:27N 26°04' W 080°07'0 0.0
2014-Sep-12 04:23N 26°04' W 080°07'0 0.0
2014-Sep-12 03:29N 26°04' W 080°07'0 0.0
2014-Sep-12 02:26N 26°04' W 080°07'0 0.0
2014-Sep-12 01:16N 26°04' W 080°07'0 0.0
2014-Sep-12 00:28N 26°04' W 080°07'0 0.0
2014-Sep-11 23:33N 26°04' W 080°07'0 0.0
2014-Sep-11 22:30N 26°04' W 080°07'0 0.0
2014-Sep-11 21:23N 26°04' W 080°07'0 0.0
2014-Sep-11 20:32N 26°04' W 080°07'2 1.7
2014-Sep-11 19:29N 26°06' W 080°07'0 0.0
2014-Sep-11 18:22N 26°06' W 080°07'0 0.0
2014-Sep-11 17:31N 26°06' W 080°07'0 0.0
2014-Sep-11 16:24N 26°06' W 080°07'0 0.0
2014-Sep-11 15:30N 26°06' W 080°07'0 0.0
2014-Sep-11 14:27N 26°06' W 080°07'0 0.0
2014-Sep-11 13:32N 26°06' W 080°07'0 0.0
2014-Sep-11 12:29N 26°06' W 080°07'0 0.0
2014-Sep-11 11:31N 26°06' W 080°07'0 0.0
2014-Sep-11 10:31N 26°06' W 080°07'0 0.0
2014-Sep-11 09:33N 26°06' W 080°07'0 0.0
2014-Sep-11 08:33N 26°06' W 080°07'0 0.0
2014-Sep-11 07:27N 26°06' W 080°07'0 0.0
2014-Sep-11 06:32N 26°06' W 080°07'0 0.0
2014-Sep-11 05:29N 26°06' W 080°07'0 0.0
2014-Sep-11 04:31N 26°06' W 080°07'0 0.0
2014-Sep-11 03:31N 26°06' W 080°07'0 0.0
2014-Sep-11 02:33N 26°06' W 080°07'0 0.0
2014-Sep-11 01:33N 26°06' W 080°07'0 0.0
2014-Sep-11 00:23N 26°06' W 080°07'0 0.0
2014-Sep-10 23:32N 26°06' W 080°07'0 0.0
2014-Sep-10 22:26N 26°06' W 080°07'0 0.0
2014-Sep-10 21:31N 26°06' W 080°07'0 0.0
2014-Sep-10 20:28N 26°06' W 080°07'0 0.0
2014-Sep-10 19:33N 26°06' W 080°07'0 0.0
2014-Sep-10 18:30N 26°06' W 080°07'0 0.0
2014-Sep-10 17:23N 26°06' W 080°07'0 0.0
2014-Sep-10 16:32N 26°06' W 080°07'0 0.0
2014-Sep-10 15:29N 26°06' W 080°07'0 0.0
2014-Sep-10 14:22N 26°06' W 080°07'0 0.0
2014-Sep-10 13:16N 26°06' W 080°07'0 0.0
2014-Sep-10 12:24N 26°06' W 080°07'0 0.0
2014-Sep-10 11:30N 26°06' W 080°07'0 0.0
2014-Sep-10 10:26N 26°06' W 080°07'0 0.0
2014-Sep-10 09:32N 26°06' W 080°07'0 0.0
2014-Sep-10 08:29N 26°06' W 080°07'0 0.0
2014-Sep-10 07:22N 26°06' W 080°07'0 0.0
2014-Sep-10 06:31N 26°06' W 080°07'0 0.0
2014-Sep-10 05:24N 26°06' W 080°07'0 0.0
2014-Sep-10 04:33N 26°06' W 080°07'0 0.0
2014-Sep-10 03:26N 26°06' W 080°07'0 0.0
2014-Sep-10 02:32N 26°06' W 080°07'0 0.0
2014-Sep-10 01:29N 26°06' W 080°07'0 0.0
2014-Sep-10 00:31N 26°06' W 080°07'0 0.0
2014-Sep-09 23:31N 26°06' W 080°07'0 0.0
2014-Sep-09 22:24N 26°06' W 080°07'0 0.0
2014-Sep-09 21:33N 26°06' W 080°07'0 0.0
2014-Sep-09 20:26N 26°06' W 080°07'0 0.0
2014-Sep-09 19:32N 26°06' W 080°07'0 0.0
2014-Sep-09 18:28N 26°06' W 080°07'0 0.0
2014-Sep-09 17:31N 26°06' W 080°07'0 0.0
2014-Sep-09 16:31N 26°06' W 080°07'0 0.0
2014-Sep-09 15:33N 26°06' W 080°07'  

Dump ship's entire track history